Decoded Metar for UUYY (SYKTYVKAR in RUSSIA) (IATA:SCW) | Meteo·Mobile Aviation Weather
aviador You're here:

UUYY Decoded Metar

SYKTYVKAR in RUSSIA
Report Time2018-08-17 14:00:00
UTC Time2018-08-17 14:38:21
Flight Rules mvfr MVFR
Wind350° at 6 kt
W.Decomp.*RWY 01: 4.9 kt HW 3.5 kt LCW
W.Rank350° ranks 12
Current wind is below 350° avg. (6.4)
Visibility9999 m
Phenomena:N/A
Clouds:Broken 028 Hf
Expected CloudBase > 2,000 ft AGL from Temp-Dew spread
Ceiling2,800 ft
Temp11°C (ISA -3)
Dew Point06°C (72% RH)
AAT8.0°C
QNH1022 hPa
Density Alt-171 ft
Elevation390 ft
Report Wrong Elevation
Raw Report
UUYY 171400Z 35003MPS 310V030 9999 BKN028 11/06 Q1022 R36/61D
NOSIG RMK QFE757/1010=

Extra information for UUYY:More info

Metar Taf Metar & Taf Last 4 Metars F.Rules Stats Wind Profile Meteogram Temp Stats Airport Information Weather charts Add Link Nearby VenuesMetar ALERT Operation Metar Decoded Social comments